Time;durP1;ratioP1;P1;durP2;ratioP2;P2;SDS_P1;SDS_P2;PMS_P1;PMS_P2;Temp;Humidity;BMP_temperature;BMP_pressure;BME280_temperature;BME280_humidity;BME280_pressure;Samples;Min_cycle;Max_cycle;Signal;HPM_P1;HPM_P2
2021/10/06 00:00:08;;;;;;;11.07;2.53;;;11.00;99.90;;;10.68;100.00;101728.84;4117532;28;20031;-73
2021/10/06 00:02:09;;;;;;;9.13;2.00;;;11.00;99.90;;;10.73;100.00;101735.38;4117061;28;20027;-74
2021/10/06 00:04:10;;;;;;;9.93;2.05;;;11.00;99.90;;;10.80;100.00;101720.69;4116217;28;20398;-73
2021/10/06 00:06:11;;;;;;;9.23;1.95;;;11.00;99.90;;;10.79;100.00;101726.09;4117353;28;20482;-73
2021/10/06 00:08:13;;;;;;;4.45;1.55;;;11.00;99.90;;;10.74;100.00;101723.03;4117190;28;20035;-73
2021/10/06 00:10:14;;;;;;;7.05;2.20;;;11.00;99.90;;;10.71;100.00;101731.22;4131940;28;20102;-73
2021/10/06 00:12:15;;;;;;;7.22;1.92;;;11.00;99.90;;;10.73;100.00;101732.75;4116156;28;20042;-73
2021/10/06 00:14:16;;;;;;;7.72;1.90;;;10.90;99.90;;;10.73;100.00;101729.25;4117074;28;20051;-73
2021/10/06 00:16:18;;;;;;;7.47;1.80;;;10.90;99.90;;;10.82;100.00;101736.38;4115885;28;20526;-74
2021/10/06 00:18:19;;;;;;;12.10;2.25;;;10.90;99.90;;;10.74;100.00;101730.94;4117255;28;20027;-73
2021/10/06 00:20:20;;;;;;;7.45;1.83;;;11.00;99.90;;;10.62;100.00;101730.22;4116090;28;20466;-73
2021/10/06 00:22:21;;;;;;;6.65;1.70;;;10.90;99.90;;;10.70;100.00;101733.00;4117886;28;20034;-73
2021/10/06 00:24:22;;;;;;;7.20;1.60;;;10.90;99.90;;;10.64;100.00;101722.13;4119976;28;20038;-73
2021/10/06 00:26:23;;;;;;;7.13;2.25;;;10.90;99.90;;;10.57;100.00;101721.84;4119815;28;20031;-73
2021/10/06 00:28:24;;;;;;;9.18;2.60;;;10.90;99.90;;;10.48;100.00;101725.28;4120006;28;20538;-73
2021/10/06 00:30:25;;;;;;;6.38;1.70;;;10.80;99.90;;;10.44;100.00;101726.50;4119664;28;20019;-74
2021/10/06 00:32:26;;;;;;;6.05;1.70;;;10.80;99.90;;;10.48;100.00;101733.19;4118666;28;20475;-73
2021/10/06 00:34:27;;;;;;;6.82;1.90;;;10.80;99.90;;;10.54;100.00;101735.31;4134453;28;20030;-74
2021/10/06 00:36:27;;;;;;;8.70;2.58;;;10.80;99.90;;;10.48;100.00;101733.19;4118509;28;20561;-73
2021/10/06 00:38:28;;;;;;;8.25;2.47;;;10.80;99.90;;;10.49;100.00;101740.13;4150906;28;20078;-73
2021/10/06 00:40:29;;;;;;;5.63;1.98;;;10.70;99.90;;;10.56;100.00;101736.00;4119720;28;20039;-74
2021/10/06 00:42:31;;;;;;;10.77;2.00;;;10.70;99.90;;;10.45;100.00;101742.19;4119542;28;20027;-73
2021/10/06 00:44:36;;;;;;;7.55;2.63;;;10.70;99.90;;;10.41;100.00;101742.59;4119689;28;20080;-73
2021/10/06 00:46:37;;;;;;;9.48;2.17;;;10.70;99.90;;;10.32;100.00;101738.09;4119364;28;20034;-74
2021/10/06 00:48:38;;;;;;;5.95;1.80;;;10.60;99.90;;;10.33;100.00;101747.69;4119522;28;20444;-74
2021/10/06 00:50:39;;;;;;;6.68;2.28;;;10.60;99.90;;;10.42;100.00;101760.09;4119455;28;20027;-74
2021/10/06 00:52:40;;;;;;;8.57;2.13;;;10.60;99.90;;;10.43;100.00;101756.47;4119803;28;20046;-73
2021/10/06 00:54:43;;;;;;;5.85;2.45;;;10.60;99.90;;;10.41;100.00;101763.69;4119490;28;20026;-73
2021/10/06 00:56:44;;;;;;;8.60;1.98;;;10.60;99.90;;;10.46;100.00;101757.06;4118405;28;20027;-73
2021/10/06 00:58:45;;;;;;;7.85;2.67;;;10.60;99.90;;;10.50;100.00;101773.47;4118262;28;20068;-74
2021/10/06 01:00:46;;;;;;;8.93;1.80;;;10.60;99.90;;;10.37;100.00;101765.75;4118424;28;20090;-74
2021/10/06 01:02:47;;;;;;;6.22;2.05;;;10.70;99.90;;;10.32;100.00;101780.28;4118280;28;20518;-73
2021/10/06 01:04:48;;;;;;;8.90;2.10;;;10.60;99.90;;;10.40;100.00;101776.03;4134374;28;20045;-73
2021/10/06 01:06:49;;;;;;;5.45;2.40;;;10.60;99.90;;;10.31;100.00;101781.25;4118157;28;20031;-73
2021/10/06 01:08:50;;;;;;;9.68;2.75;;;10.60;99.90;;;10.40;100.00;101780.47;4150635;28;20065;-73
2021/10/06 01:10:53;;;;;;;8.30;2.35;;;10.60;99.90;;;10.38;100.00;101775.34;4118150;28;20080;-74
2021/10/06 01:12:54;;;;;;;7.00;2.05;;;10.60;99.90;;;10.27;100.00;101772.78;4118232;28;20031;-73
2021/10/06 01:14:56;;;;;;;6.55;1.77;;;10.60;99.90;;;10.30;100.00;101774.31;4117941;28;20062;-73
2021/10/06 01:16:58;;;;;;;11.35;3.17;;;10.60;99.90;;;10.20;100.00;101781.31;4118063;28;20034;-73
2021/10/06 01:18:59;;;;;;;8.60;3.20;;;10.60;99.90;;;10.11;100.00;101774.13;4119352;28;20029;-73
2021/10/06 01:21:14;;;;;;;7.88;1.88;;;10.50;99.90;;;10.13;100.00;101780.09;4119214;28;20085;-74
2021/10/06 01:23:17;;;;;;;8.50;2.08;;;10.50;99.90;;;10.20;100.00;101776.88;4119299;28;20027;-73
2021/10/06 01:25:18;;;;;;;6.60;2.00;;;10.50;99.90;;;10.17;100.00;101789.47;4119185;28;20049;-73
2021/10/06 01:27:19;;;;;;;5.50;1.98;;;10.50;99.90;;;10.37;100.00;101788.63;4119269;28;20486;-73
2021/10/06 01:29:20;;;;;;;9.52;2.40;;;10.50;99.90;;;10.27;100.00;101787.75;4119052;28;20062;-73
2021/10/06 01:31:29;;;;;;;11.20;2.33;;;10.50;99.90;;;10.27;100.00;101780.69;4118734;28;20060;-73
2021/10/06 01:33:30;;;;;;;7.70;1.98;;;10.50;99.90;;;10.23;100.00;101792.44;4118259;28;20031;-73
2021/10/06 01:35:32;;;;;;;6.68;1.98;;;10.50;99.90;;;10.24;100.00;101785.38;4118999;28;20034;-74
2021/10/06 01:37:34;;;;;;;10.02;1.95;;;10.50;99.90;;;10.27;100.00;101787.75;4119031;28;20057;-74
2021/10/06 01:39:35;;;;;;;8.40;2.08;;;10.40;99.90;;;10.24;100.00;101799.41;4118919;28;20550;-73
2021/10/06 01:41:36;;;;;;;10.65;2.65;;;10.50;99.90;;;10.18;100.00;101791.16;4119061;28;20382;-73
2021/10/06 01:43:37;;;;;;;5.95;1.90;;;10.50;99.90;;;10.26;100.00;101796.63;4117787;28;20049;-74
2021/10/06 01:45:42;;;;;;;8.23;1.60;;;10.50;99.90;;;10.06;100.00;101789.50;4118728;28;20031;-73
2021/10/06 01:47:44;;;;;;;5.45;2.45;;;10.40;99.90;;;10.16;100.00;101793.06;4118981;28;20034;-73
2021/10/06 01:49:46;;;;;;;7.32;1.92;;;10.40;99.90;;;10.13;100.00;101791.53;4117608;28;20055;-73
2021/10/06 01:51:50;;;;;;;11.15;2.10;;;10.40;99.90;;;10.11;100.00;101796.06;4118831;28;20026;-74
2021/10/06 01:53:52;;;;;;;6.00;1.98;;;10.40;99.90;;;10.08;100.00;101795.50;4133468;28;20038;-73
2021/10/06 01:55:53;;;;;;;11.38;2.60;;;10.30;99.90;;;10.00;100.00;101793.50;4117697;28;20031;-73
2021/10/06 01:57:56;;;;;;;6.82;1.75;;;10.30;99.90;;;10.01;100.00;101795.16;4149959;28;20028;-73
2021/10/06 01:59:57;;;;;;;7.22;2.30;;;10.30;99.90;;;10.00;100.00;101804.03;4101678;28;20028;-73
2021/10/06 02:01:58;;;;;;;5.25;1.83;;;10.30;99.90;;;10.09;100.00;101797.16;4118405;28;20034;-73
2021/10/06 02:03:59;;;;;;;4.90;1.50;;;10.30;99.90;;;10.04;100.00;101797.53;4118689;28;20100;-73
2021/10/06 02:06:00;;;;;;;10.40;2.40;;;10.20;99.90;;;9.96;100.00;101792.91;4118626;28;20034;-73
2021/10/06 02:08:03;;;;;;;7.03;1.63;;;10.30;99.90;;;9.88;100.00;101799.78;4118582;28;20034;-73
2021/10/06 02:10:06;;;;;;;8.50;2.15;;;10.20;99.90;;;10.04;100.00;101792.25;4117272;28;20058;-73
2021/10/06 02:12:08;;;;;;;8.18;1.90;;;10.20;99.90;;;10.01;100.00;101782.81;4118588;28;20081;-73
2021/10/06 02:14:09;;;;;;;6.57;1.92;;;10.30;99.90;;;10.07;100.00;101788.53;4117167;28;20031;-74
2021/10/06 02:16:09;;;;;;;6.55;2.00;;;10.30;99.90;;;10.03;100.00;101786.16;4118351;28;20046;-73
2021/10/06 02:18:10;;;;;;;11.48;2.22;;;10.30;99.90;;;9.94;100.00;101786.09;4117193;28;20058;-74
2021/10/06 02:20:11;;;;;;;9.60;2.28;;;10.20;99.90;;;9.96;100.00;101782.38;4117404;28;20027;-73
2021/10/06 02:22:12;;;;;;;5.90;1.80;;;10.30;99.90;;;10.11;100.00;101788.16;4133221;28;20026;-74
2021/10/06 02:24:13;;;;;;;6.53;1.60;;;10.30;99.90;;;10.03;100.00;101780.06;4118462;28;20030;-73
2021/10/06 02:26:14;;;;;;;9.88;2.67;;;10.30;99.90;;;9.97;100.00;101781.38;4118295;28;20035;-74
2021/10/06 02:28:15;;;;;;;6.97;2.28;;;10.30;99.90;;;9.93;100.00;101787.06;4117360;28;20152;-73
2021/10/06 02:30:16;;;;;;;8.52;2.60;;;10.30;99.90;;;10.12;100.00;101789.00;4117207;28;20031;-73
2021/10/06 02:32:17;;;;;;;5.32;1.50;;;10.30;99.90;;;10.03;100.00;101786.16;4118408;28;20060;-74
2021/10/06 02:34:18;;;;;;;5.68;2.05;;;10.20;99.90;;;10.05;100.00;101779.91;4118224;28;20031;-73
2021/10/06 02:36:19;;;;;;;6.70;1.58;;;10.20;99.90;;;10.13;100.00;101788.91;4118411;28;20039;-73
2021/10/06 02:38:20;;;;;;;7.03;2.40;;;10.30;99.90;;;10.18;100.00;101799.06;4118307;28;20509;-73
2021/10/06 02:40:21;;;;;;;7.55;2.15;;;10.30;99.90;;;10.11;100.00;101793.44;4117291;28;20031;-73
2021/10/06 02:42:22;;;;;;;6.18;1.70;;;10.30;99.90;;;10.08;100.00;101790.22;4116932;28;20102;-73
2021/10/06 02:44:23;;;;;;;10.10;2.35;;;10.30;99.90;;;10.03;100.00;101785.34;4117088;28;20580;-73
2021/10/06 02:46:24;;;;;;;8.65;1.88;;;10.20;99.90;;;10.12;100.00;101791.66;4100655;28;20114;-73
2021/10/06 02:48:25;;;;;;;6.50;1.50;;;10.30;99.90;;;9.93;100.00;101785.25;4130369;28;20163;-73
2021/10/06 02:50:26;;;;;;;6.05;1.73;;;10.30;99.90;;;9.94;100.00;101779.03;4118258;28;20045;-73
2021/10/06 02:52:27;;;;;;;6.75;2.15;;;10.30;99.90;;;9.83;100.00;101779.06;4116880;28;20085;-73
2021/10/06 02:54:28;;;;;;;5.22;2.08;;;10.20;99.90;;;9.94;100.00;101781.66;4117966;28;20038;-73
2021/10/06 02:56:29;;;;;;;9.45;2.38;;;10.20;99.90;;;9.86;100.00;101791.13;4132839;28;20460;-73
2021/10/06 02:58:30;;;;;;;11.23;2.22;;;10.20;99.90;;;9.87;100.00;101800.72;4117958;28;20031;-74
2021/10/06 03:00:31;;;;;;;6.30;2.13;;;10.20;99.90;;;9.89;100.00;101799.63;4117600;28;20033;-74
2021/10/06 03:02:32;;;;;;;7.65;2.30;;;10.20;99.90;;;9.95;100.00;101801.78;4132800;28;20027;-74
2021/10/06 03:04:33;;;;;;;6.30;2.53;;;10.20;99.90;;;9.84;100.00;101799.19;4117922;28;20037;-73
2021/10/06 03:06:34;;;;;;;7.70;2.00;;;10.10;99.90;;;9.90;100.00;101798.69;4117861;28;20027;-73
2021/10/06 03:08:35;;;;;;;7.53;2.28;;;10.20;99.90;;;9.85;100.00;101800.88;4117721;28;20038;-73
2021/10/06 03:10:36;;;;;;;7.07;2.35;;;10.20;99.90;;;9.84;100.00;101807.09;4117942;28;20058;-73
2021/10/06 03:12:37;;;;;;;8.13;2.05;;;10.20;99.90;;;9.83;100.00;101794.88;4132631;28;20055;-73
2021/10/06 03:14:38;;;;;;;6.30;2.10;;;10.20;99.90;;;10.06;100.00;101811.44;4116460;28;20050;-73
2021/10/06 03:16:39;;;;;;;6.38;2.08;;;10.10;99.90;;;9.92;100.00;101820.47;4117688;28;20029;-73
2021/10/06 03:18:40;;;;;;;6.30;2.13;;;10.20;99.90;;;9.89;100.00;101826.00;4117916;28;20073;-73
2021/10/06 03:20:41;;;;;;;8.15;2.50;;;10.20;99.90;;;9.91;100.00;101829.34;4100798;28;20027;-73
2021/10/06 03:22:42;;;;;;;8.48;2.88;;;10.20;99.90;;;9.94;100.00;101833.53;4132649;28;20632;-73
2021/10/06 03:24:43;;;;;;;5.97;1.88;;;10.20;99.90;;;9.93;100.00;101837.13;4116339;28;20042;-73
2021/10/06 03:26:44;;;;;;;8.85;2.42;;;10.20;99.90;;;9.80;100.00;101842.53;4116624;28;20042;-74
2021/10/06 03:28:45;;;;;;;7.60;2.08;;;10.10;99.90;;;9.82;100.00;101853.81;4132624;28;20053;-74
2021/10/06 03:30:46;;;;;;;6.93;2.08;;;10.10;99.90;;;9.83;100.00;101846.72;4117467;28;20087;-73
2021/10/06 03:32:46;;;;;;;11.88;2.70;;;10.20;99.90;;;9.76;100.00;101843.78;4117508;28;20027;-74
2021/10/06 03:34:47;;;;;;;9.07;2.08;;;10.10;99.90;;;9.79;100.00;101847.97;4117632;28;20125;-73
2021/10/06 03:36:48;;;;;;;6.60;1.85;;;10.10;99.90;;;9.79;100.00;101837.41;4117637;28;20477;-73
2021/10/06 03:38:49;;;;;;;7.07;1.80;;;10.10;99.90;;;9.83;100.00;101834.41;4117540;28;20113;-74
2021/10/06 03:40:50;;;;;;;8.02;1.80;;;10.10;99.90;;;9.91;100.00;101847.81;4117349;28;20031;-74
2021/10/06 03:42:51;;;;;;;5.80;2.25;;;10.10;99.90;;;9.94;100.00;101839.66;4117605;28;20038;-73
2021/10/06 03:44:52;;;;;;;5.05;2.03;;;10.10;99.90;;;9.88;100.00;101834.88;4116325;28;20055;-74
2021/10/06 03:46:53;;;;;;;7.00;1.80;;;10.10;99.90;;;9.86;100.00;101842.06;4132049;28;20034;-73
2021/10/06 03:48:54;;;;;;;10.05;1.60;;;10.10;99.90;;;9.86;100.00;101855.22;4116218;28;20265;-74
2021/10/06 03:50:55;;;;;;;5.05;1.77;;;10.20;99.90;;;9.89;100.00;101862.03;4132110;28;20039;-73
2021/10/06 03:52:56;;;;;;;9.43;1.77;;;10.20;99.90;;;9.87;100.00;101877.16;4117464;28;20038;-74
2021/10/06 03:54:57;;;;;;;6.60;2.15;;;10.10;99.90;;;9.78;100.00;101876.09;4117353;28;20031;-73
2021/10/06 03:56:58;;;;;;;7.57;2.05;;;10.10;99.90;;;9.97;100.00;101872.81;4115650;28;20153;-74
2021/10/06 03:58:58;;;;;;;6.57;2.00;;;10.10;99.90;;;9.96;100.00;101879.03;4117466;28;20038;-73
2021/10/06 04:00:59;;;;;;;8.43;1.77;;;10.20;99.90;;;9.87;100.00;101866.59;4117248;28;20065;-74
2021/10/06 04:03:00;;;;;;;7.07;1.88;;;10.20;99.90;;;9.96;100.00;101879.88;4117453;28;20038;-73
2021/10/06 04:05:02;;;;;;;7.13;1.80;;;10.20;99.90;;;9.96;100.00;101873.78;4117139;28;20023;-73
2021/10/06 04:07:03;;;;;;;7.50;1.83;;;10.20;99.90;;;9.90;100.00;101869.84;4117380;28;20039;-73
2021/10/06 04:09:04;;;;;;;6.57;2.40;;;10.20;99.90;;;9.90;100.00;101874.28;4116227;28;20023;-73
2021/10/06 04:11:05;;;;;;;6.80;1.83;;;10.20;99.90;;;9.89;100.00;101870.78;4117312;28;20063;-73
2021/10/06 04:13:06;;;;;;;4.72;1.48;;;10.20;99.90;;;9.90;100.00;101867.22;4117149;28;20502;-73
2021/10/06 04:15:07;;;;;;;8.48;1.90;;;10.10;99.90;;;9.88;100.00;101860.38;4116918;28;20055;-73
2021/10/06 04:17:09;;;;;;;7.43;2.00;;;10.20;99.90;;;9.96;100.00;101853.53;4099828;28;20027;-73
2021/10/06 04:19:09;;;;;;;6.22;1.63;;;10.20;99.90;;;9.81;100.00;101859.19;4117168;28;20391;-73
2021/10/06 04:21:11;;;;;;;4.05;1.38;;;10.20;99.90;;;9.87;100.00;101870.09;4117103;28;20072;-73
2021/10/06 04:23:12;;;;;;;7.20;2.50;;;10.10;99.90;;;9.88;100.00;101874.41;4117284;28;20035;-73
2021/10/06 04:25:13;;;;;;;5.97;1.90;;;10.10;99.90;;;9.85;100.00;101877.28;4117162;28;20054;-73
2021/10/06 04:27:14;;;;;;;6.70;1.90;;;10.20;99.90;;;9.93;100.00;101869.59;4117036;28;20118;-74
2021/10/06 04:29:15;;;;;;;8.90;1.80;;;10.10;99.90;;;9.91;100.00;101870.69;4116997;28;20110;-73
2021/10/06 04:31:19;;;;;;;9.60;2.42;;;10.10;99.90;;;9.76;100.00;101862.22;4116823;28;20494;-73
2021/10/06 04:33:20;;;;;;;6.78;2.17;;;10.10;99.90;;;9.80;100.00;101854.88;4132132;28;20027;-73
2021/10/06 04:35:21;;;;;;;6.50;1.77;;;10.20;99.90;;;9.87;100.00;101858.72;4115707;28;20038;-74
2021/10/06 04:37:22;;;;;;;6.32;2.03;;;10.10;99.90;;;9.76;100.00;101864.84;4147999;28;20030;-73
2021/10/06 04:39:23;;;;;;;7.90;2.17;;;10.10;99.90;;;9.78;100.00;101885.78;4115759;28;20066;-73
2021/10/06 04:41:24;;;;;;;6.70;2.25;;;10.10;99.90;;;9.73;100.00;101883.53;4126615;28;20065;-74
2021/10/06 04:43:25;;;;;;;5.45;1.90;;;10.10;99.90;;;9.66;100.00;101882.34;4116875;28;20068;-74
2021/10/06 04:45:26;;;;;;;7.70;2.20;;;10.10;99.90;;;9.75;100.00;101889.53;4116638;28;20054;-74
2021/10/06 04:47:27;;;;;;;9.20;3.50;;;10.00;99.90;;;9.73;100.00;101899.34;4115599;28;20422;-74
2021/10/06 04:49:28;;;;;;;6.70;2.63;;;10.00;99.90;;;9.76;100.00;101898.28;4143065;28;20030;-73
2021/10/06 04:51:29;;;;;;;12.02;3.78;;;10.00;99.90;;;9.88;100.00;101890.22;4109061;28;20469;-73
2021/10/06 04:53:30;;;;;;;8.75;3.17;;;10.00;99.90;;;9.95;100.00;101891.38;4115638;28;20027;-73
2021/10/06 04:55:31;;;;;;;9.95;3.05;;;10.10;99.90;;;9.87;100.00;101906.97;4115638;28;20030;-74
2021/10/06 04:57:33;;;;;;;10.05;3.28;;;10.10;99.90;;;9.78;100.00;101906.88;4116876;28;20030;-73
2021/10/06 04:59:34;;;;;;;7.65;4.00;;;10.10;99.90;;;9.64;100.00;101904.50;4115273;28;20027;-74
2021/10/06 05:01:35;;;;;;;4.82;2.80;;;10.00;99.90;;;9.79;100.00;101914.69;4115243;28;20161;-74
2021/10/06 05:03:36;;;;;;;9.98;3.42;;;10.00;99.90;;;9.81;100.00;101919.81;4099404;28;20034;-73
2021/10/06 05:05:38;;;;;;;6.40;3.22;;;10.10;99.90;;;9.67;100.00;101909.53;4099500;28;20031;-73
2021/10/06 05:07:39;;;;;;;8.98;2.83;;;10.00;99.90;;;9.70;100.00;101918.03;4131389;28;20034;-74
2021/10/06 05:09:40;;;;;;;6.30;2.55;;;10.10;99.90;;;9.66;100.00;101913.97;4118822;28;20032;-73
2021/10/06 05:11:42;;;;;;;5.75;2.70;;;10.00;99.90;;;9.68;100.00;101919.09;4119215;28;20031;-73
2021/10/06 05:13:42;;;;;;;8.88;3.33;;;10.00;99.90;;;9.62;100.00;101928.31;4119426;28;20487;-73
2021/10/06 05:15:43;;;;;;;5.55;2.70;;;10.00;99.90;;;9.68;100.00;101933.13;4118802;28;20047;-74
2021/10/06 05:17:45;;;;;;;10.23;2.47;;;10.10;99.90;;;9.68;100.00;101937.53;4119235;28;20125;-73
2021/10/06 05:19:46;;;;;;;10.65;2.78;;;10.10;99.90;;;9.74;100.00;101942.31;4119157;28;20025;-73
2021/10/06 05:21:47;;;;;;;9.27;2.67;;;10.10;99.90;;;9.78;100.00;101941.97;4118368;28;20035;-73
2021/10/06 05:23:48;;;;;;;6.47;2.33;;;10.10;99.90;;;9.73;100.00;101936.25;4119076;28;20027;-74
2021/10/06 05:25:49;;;;;;;6.15;2.03;;;10.20;99.90;;;9.72;100.00;101939.81;4117937;28;20482;-73
2021/10/06 05:27:51;;;;;;;7.88;2.40;;;10.10;99.90;;;9.73;100.00;101949.41;4117789;28;20023;-73
2021/10/06 05:29:52;;;;;;;6.47;1.92;;;10.10;99.90;;;9.85;100.00;101948.44;4119141;28;20026;-73
2021/10/06 05:31:53;;;;;;;6.88;2.00;;;10.10;99.90;;;9.77;100.00;101940.28;4118607;28;20042;-73
2021/10/06 05:33:54;;;;;;;7.40;2.55;;;10.20;99.90;;;9.87;100.00;101938.63;4117737;28;20062;-73
2021/10/06 05:35:55;;;;;;;8.80;1.92;;;10.10;99.90;;;9.92;100.00;101940.88;4117750;28;20058;-74
2021/10/06 05:37:56;;;;;;;3.67;2.00;;;10.20;99.90;;;9.81;100.00;101938.25;4119039;28;20031;-73
2021/10/06 05:39:57;;;;;;;8.27;1.85;;;10.20;99.90;;;9.85;100.00;101960.78;4119007;28;20405;-73
2021/10/06 05:41:58;;;;;;;5.03;1.50;;;10.20;99.90;;;9.86;100.00;101955.38;4118932;28;20029;-73
2021/10/06 05:43:58;;;;;;;7.57;1.85;;;10.20;99.90;;;9.76;100.00;101954.44;4117644;28;20035;-74
2021/10/06 05:46:00;;;;;;;7.70;2.03;;;10.20;99.90;;;9.75;100.00;101944.84;4133805;28;20436;-73
2021/10/06 05:48:01;;;;;;;6.55;1.50;;;10.20;99.90;;;9.71;100.00;101959.22;4118988;28;20031;-74
2021/10/06 05:50:02;;;;;;;9.73;2.70;;;10.10;99.90;;;9.68;100.00;101958.63;4118672;28;20069;-74
2021/10/06 05:52:03;;;;;;;7.90;1.92;;;10.20;99.90;;;9.67;100.00;101949.91;4118796;28;20390;-73
2021/10/06 05:54:04;;;;;;;6.65;2.20;;;10.20;99.90;;;9.66;100.00;101948.22;4117390;28;20035;-74
2021/10/06 05:56:05;;;;;;;7.88;1.98;;;10.10;99.90;;;9.80;100.00;101958.50;4118775;28;20454;-73
2021/10/06 05:58:06;;;;;;;6.80;1.83;;;10.10;99.90;;;9.83;100.00;101954.78;4118707;28;20039;-74
2021/10/06 06:00:08;;;;;;;4.47;1.42;;;10.10;99.90;;;9.74;100.00;101958.13;4118361;28;20029;-74
2021/10/06 06:02:09;;;;;;;5.75;2.38;;;10.10;99.90;;;9.67;100.00;101957.81;4118571;28;20039;-74
2021/10/06 06:04:10;;;;;;;11.00;2.75;;;10.10;99.90;;;9.79;100.00;101967.38;4118611;28;20167;-74
2021/10/06 06:06:11;;;;;;;11.63;1.80;;;10.10;99.90;;;9.82;100.00;101968.94;4118792;28;20027;-74
2021/10/06 06:08:12;;;;;;;6.78;2.15;;;10.20;99.90;;;9.79;100.00;101972.66;4118599;28;20042;-73
2021/10/06 06:10:14;;;;;;;7.63;1.70;;;10.20;99.90;;;9.75;100.00;101971.19;4118455;28;20030;-74
2021/10/06 06:12:15;;;;;;;7.45;2.25;;;10.20;99.90;;;9.76;100.00;101972.91;4117444;28;20561;-74
2021/10/06 06:14:16;;;;;;;8.32;2.70;;;10.10;99.90;;;9.81;100.00;101973.34;4118200;28;20074;-74
2021/10/06 06:16:17;;;;;;;7.88;1.98;;;10.20;99.90;;;9.84;100.00;101981.03;4118345;28;20394;-73
2021/10/06 06:18:20;;;;;;;8.88;2.25;;;10.20;99.90;;;9.75;100.00;101978.25;4118443;28;20035;-74
2021/10/06 06:20:24;;;;;;;5.97;1.95;;;10.20;99.90;;;9.77;100.00;101973.69;4118337;28;20496;-74
2021/10/06 06:22:25;;;;;;;7.45;2.72;;;10.30;99.90;;;9.80;100.00;101981.38;4118572;28;20474;-74
2021/10/06 06:24:27;;;;;;;8.95;2.20;;;10.30;99.90;;;9.84;100.00;101978.38;4118382;28;20106;-74
2021/10/06 06:26:28;;;;;;;6.20;2.17;;;10.30;99.90;;;9.82;100.00;101980.31;4118541;28;20034;-73
2021/10/06 06:28:29;;;;;;;6.65;2.40;;;10.30;99.90;;;9.99;100.00;101974.53;4117119;28;20082;-73
2021/10/06 06:30:30;;;;;;;13.55;3.03;;;10.30;99.90;;;10.02;100.00;101973.44;4117025;28;20042;-73
2021/10/06 06:32:31;;;;;;;6.80;2.47;;;10.30;99.90;;;9.97;100.00;101986.97;4127545;28;20031;-73
2021/10/06 06:34:32;;;;;;;7.63;2.60;;;10.30;99.90;;;10.02;100.00;101989.25;4117761;28;20510;-73
2021/10/06 06:36:33;;;;;;;8.88;3.80;;;10.30;99.90;;;10.06;100.00;101993.34;4119456;28;20084;-73
2021/10/06 06:38:35;;;;;;;6.53;2.85;;;10.40;99.90;;;10.06;100.00;101992.50;4102069;28;20122;-73
2021/10/06 06:40:40;;;;;;;10.35;3.22;;;10.40;99.90;;;10.11;100.00;101990.31;4119284;28;20061;-73
2021/10/06 06:42:41;;;;;;;9.85;3.05;;;10.50;99.90;;;10.11;100.00;101993.81;4119008;28;20026;-73
2021/10/06 06:44:43;;;;;;;7.47;2.60;;;10.40;99.90;;;10.10;100.00;101992.13;4119113;28;20038;-73
2021/10/06 06:46:44;;;;;;;9.07;2.63;;;10.50;99.90;;;10.09;100.00;102001.00;4118743;28;20057;-73
2021/10/06 06:48:45;;;;;;;8.32;3.15;;;10.50;99.90;;;10.15;100.00;102000.56;4118746;28;20106;-73
2021/10/06 06:50:53;;;;;;;6.30;2.92;;;10.50;99.90;;;10.27;100.00;101998.72;4117345;28;20033;-73
2021/10/06 06:52:54;;;;;;;8.55;2.83;;;10.60;99.90;;;10.22;100.00;101992.97;4117558;28;20035;-73
2021/10/06 06:54:55;;;;;;;8.80;2.85;;;10.60;99.90;;;10.29;100.00;102002.91;4133964;28;20128;-73
2021/10/06 06:56:56;;;;;;;10.85;3.10;;;10.70;99.90;;;10.26;100.00;101994.41;4118981;28;20043;-73
2021/10/06 06:58:57;;;;;;;8.55;3.88;;;10.70;99.90;;;10.38;100.00;102011.88;4118794;28;20065;-73
2021/10/06 07:00:58;;;;;;;7.95;2.75;;;10.70;99.90;;;10.45;100.00;102019.16;4116334;28;20030;-73
2021/10/06 07:02:58;;;;;;;6.65;3.17;;;10.80;99.90;;;10.43;100.00;102012.34;4116600;28;20115;-74
2021/10/06 07:05:00;;;;;;;9.15;3.30;;;10.80;99.90;;;10.43;100.00;102022.88;4116633;28;20519;-74
2021/10/06 07:07:03;;;;;;;10.90;3.33;;;10.90;99.90;;;10.55;100.00;102017.47;4116423;28;20038;-74
2021/10/06 07:09:05;;;;;;;8.57;3.25;;;10.90;99.90;;;10.53;100.00;102015.91;4116658;28;20038;-74
2021/10/06 07:11:05;;;;;;;8.82;3.88;;;11.00;99.90;;;10.58;100.00;102016.38;4116418;28;20409;-74
2021/10/06 07:13:06;;;;;;;10.68;3.15;;;11.00;99.90;;;10.61;100.00;102015.28;4117945;28;20035;-74
2021/10/06 07:15:08;;;;;;;9.38;3.15;;;11.00;99.90;;;10.60;100.00;102019.75;4117404;28;20057;-74
2021/10/06 07:17:10;;;;;;;8.45;2.92;;;11.10;99.90;;;10.65;100.00;102033.41;4117698;28;20034;-74
2021/10/06 07:19:11;;;;;;;6.97;2.53;;;11.10;99.90;;;10.77;100.00;102028.91;4116575;28;20023;-74
2021/10/06 07:21:12;;;;;;;5.75;2.60;;;11.10;99.90;;;10.81;100.00;102040.91;4116560;28;20533;-74
2021/10/06 07:23:13;;;;;;;10.30;2.33;;;11.20;99.90;;;10.78;100.00;102044.59;4117742;28;20494;-74
2021/10/06 07:25:16;;;;;;;9.85;2.35;;;11.20;99.90;;;10.83;100.00;102055.66;4116551;28;20090;-74
2021/10/06 07:27:17;;;;;;;7.25;2.30;;;11.30;99.90;;;10.80;100.00;102052.41;4116407;28;20023;-74
2021/10/06 07:29:18;;;;;;;6.50;2.00;;;11.30;99.90;;;10.86;100.00;102060.69;4117619;28;20035;-74
2021/10/06 07:31:19;;;;;;;6.47;2.80;;;11.30;99.90;;;10.87;100.00;102048.31;4116599;28;20039;-74
2021/10/06 07:33:20;;;;;;;7.70;2.92;;;11.40;99.90;;;10.95;100.00;102065.19;4117610;28;20106;-74
2021/10/06 07:35:21;;;;;;;12.18;2.78;;;11.40;99.90;;;11.02;100.00;102068.19;4117407;28;20030;-74
2021/10/06 07:37:22;;;;;;;9.35;2.58;;;11.50;99.90;;;11.05;100.00;102063.47;4117550;28;20501;-74
2021/10/06 07:39:23;;;;;;;9.07;1.92;;;11.50;99.90;;;11.18;100.00;102068.56;4116352;28;20027;-74
2021/10/06 07:41:24;;;;;;;11.30;2.95;;;11.60;99.90;;;11.25;100.00;102069.75;4117382;28;20394;-74
2021/10/06 07:43:25;;;;;;;6.38;2.20;;;11.70;99.90;;;11.21;100.00;102059.53;4116322;28;20092;-74
2021/10/06 07:45:26;;;;;;;6.85;2.03;;;11.70;99.90;;;11.26;100.00;102075.88;4117184;28;20088;-74
2021/10/06 07:47:27;;;;;;;7.35;2.00;;;11.70;99.90;;;11.35;100.00;102077.75;4117280;28;20525;-74
2021/10/06 07:49:28;;;;;;;12.02;2.55;;;11.80;99.90;;;11.38;100.00;102077.50;4116151;28;20039;-74
2021/10/06 07:51:29;;;;;;;12.13;2.72;;;11.80;99.90;;;11.41;100.00;102066.66;4117437;28;20117;-74
2021/10/06 07:53:31;;;;;;;11.05;2.53;;;11.90;99.90;;;11.58;100.00;102069.56;4117221;28;20045;-74
2021/10/06 07:55:32;;;;;;;9.50;2.65;;;12.00;99.90;;;11.62;100.00;102075.41;4117145;28;20057;-74
2021/10/06 07:57:33;;;;;;;10.13;2.35;;;12.00;99.90;;;11.66;100.00;102082.09;4117375;28;20035;-74
2021/10/06 07:59:34;;;;;;;6.60;2.45;;;12.10;99.90;;;11.81;100.00;102080.00;4116145;28;20461;-74
2021/10/06 08:01:35;;;;;;;9.75;3.72;;;12.20;99.90;;;11.79;100.00;102080.13;4115910;28;20031;-74
2021/10/06 08:03:36;;;;;;;6.70;2.22;;;12.30;99.90;;;11.76;100.00;102080.41;4117114;28;20076;-74
2021/10/06 08:05:37;;;;;;;7.10;2.45;;;12.30;99.90;;;11.78;100.00;102081.09;4117227;28;20445;-74
2021/10/06 08:07:38;;;;;;;10.32;2.17;;;12.30;99.90;;;11.79;100.00;102077.50;4117168;28;20038;-74
2021/10/06 08:09:39;;;;;;;7.03;2.30;;;12.40;99.90;;;11.84;100.00;102079.72;4115964;28;20081;-76
2021/10/06 08:11:40;;;;;;;6.65;2.10;;;12.40;99.90;;;11.91;100.00;102086.19;4117045;28;20487;-76
2021/10/06 08:13:41;;;;;;;7.45;2.40;;;12.40;99.90;;;12.08;100.00;102090.84;4117154;28;20049;-77
2021/10/06 08:15:42;;;;;;;10.13;2.13;;;12.60;99.90;;;12.16;100.00;102096.28;4099704;28;20040;-76
2021/10/06 08:17:43;;;;;;;6.30;1.77;;;12.60;99.90;;;12.20;100.00;102098.56;4116051;28;20029;-75
2021/10/06 08:19:46;;;;;;;7.22;1.92;;;12.70;99.90;;;12.23;100.00;102100.09;4117022;28;20045;-75